ZSOFZGSZ

Guest
Details From ZSOF - Luogang
To ZGSZ - Baoan Intl
Flight Number -
Tags Generated
Created
Modified
Stats Distance 580 nm / 1,074 km
Max Altitude 0 ft / 0 m
Waypoints 5
Social Downloads 1
Likes 0
Share VATSIM

Download

Looking for another format? Having issues loading an existing format? Contact us
Advertisement - Login to hide

Notes

Generated

Route

ZSOF KHN MABAG IDUMA ZGSZ

ID Type Via Altitude Latitude Longitude Leg Dist Tot Dist Heading (true) Name
O ZSOF APT - 0 ft / 0 m 31.78964˚ 117.28757˚ - 0 nm - -
KHN VOR - 0 ft / 0 m 28.43000˚ 115.92333˚ 213 nm 213 nm 200° / 199° XIANGTANG VOR-DME
MABAG FIX - 0 ft / 0 m 24.31333˚ 114.50667˚ 258 nm 472 nm 197° / 197° -
IDUMA FIX - 0 ft / 0 m 22.89500˚ 113.95333˚ 90 nm 563 nm 200° / 200° -
O ZGSZ APT - 0 ft / 0 m 22.65296˚ 113.80315˚ 16 nm 579 nm 210° / 210° -

Altitude Profile

Advertisement - Login to hide

Weather


0- 5 10 15 20 25 30 35+ Temperature / ° C

Clouds and Precipitation
Forecast for 2017-12-18 18:00 UTC. Updated 2 hours ago

Ground ~20,000 ft ~40,000 ft Winds

ZSOF

Details ICAO ZSOF (HFE)
Name LUOGANG
Region China
Timezone Asia/Shanghai (UTC+8.0)
Stats Elevation 108 ft / 33 m (AMSL)
Location 31.780018° 117.298714°
Runways 1
Magnetic Variation 5.279° W

METAR

ZSOF 181500Z 28001MPS CAVOK 03/M07 Q1035 NOSIG

Decode

TAF

Not found

Departure Runways

ID Width Length Bearing (true) Bearing (mag) Surface Threshold Offset Overrun Length
14 164 ft / 50 m 9,853 ft / 3,003 m 135.43° 140.71° Concrete 0 ft / 0 m 165 ft / 50 m
32 164 ft / 50 m 9,853 ft / 3,003 m 315.44° 320.72° Concrete 0 ft / 0 m 165 ft / 50 m

ZGSZ

Details ICAO ZGSZ (SZX)
Name BAOAN INTL
Region China
Timezone Asia/Shanghai (UTC+8.0)
Stats Elevation 13 ft / 4 m (AMSL)
Location 22.639259° 113.810663°
Runways 1
Magnetic Variation 2.862° W

METAR

ZGSZ 181500Z 02006MPS CAVOK 12/M04 Q1027 NOSIG

Decode

TAF

Not found

Destination Runways

ID Width Length Bearing (true) Bearing (mag) Surface Threshold Offset Overrun Length
15 148 ft / 45 m 11,209 ft / 3,416 m 153.15° 156.01° Concrete 0 ft / 0 m 197 ft / 60 m
33 148 ft / 45 m 11,209 ft / 3,416 m 333.15° 336.01° Concrete 0 ft / 0 m 197 ft / 60 m

Approach Navaids

Runway Type Ident Frequency Range Bearing (true) Bearing (mag) Slope Elevation
15 Localiser IQJ 111.30 MHz 18 nm / 33 km 153.14° 156.00° - 13 ft / 4 m (AMSL)
15 Glidescope IQJ 111.30 MHz 10 nm / 19 km 153.15° 156.01° 3.00° 13 ft / 4 m (AMSL)
15 DME IQJ 111.30 MHz 18 nm / 33 km - - - 33 ft / 10 m (AMSL)
33 Localiser IMH 110.70 MHz 18 nm / 33 km 333.13° 335.99° - 13 ft / 4 m (AMSL)
33 Glidescope IMH 110.70 MHz 10 nm / 19 km 333.15° 336.01° 3.00° 13 ft / 4 m (AMSL)
33 DME IMH 110.70 MHz 18 nm / 33 km - - - 26 ft / 8 m (AMSL)